Time,TemperatureF,DewpointF,PressureIn,WindDirection,WindDirectionDegrees,WindSpeedMPH,WindSpeedGustMPH,Humidity,HourlyPrecipIn,Conditions,Clouds,dailyrainin,SolarRadiationWatts/m^2,SoftwareType,DateUTC
2013-08-30 00:21:00,74.0,42.0,-100.00,South,190,10.0,12.0,32,0.00,,,0.00,1.000000,,2013-08-30 07:21:00,
2013-08-30 00:31:00,74.0,42.0,-100.00,South,190,10.0,12.0,32,0.00,,,0.00,1.000000,,2013-08-30 07:31:00,
2013-08-30 00:43:00,74.0,42.0,-100.00,South,190,10.0,12.0,32,0.00,,,0.00,1.000000,,2013-08-30 07:43:00,
2013-08-30 00:53:00,74.0,42.0,-100.00,South,190,10.0,12.0,32,0.00,,,0.00,1.000000,,2013-08-30 07:53:00,
2013-08-30 01:22:00,73.0,42.0,-100.00,South,183,11.0,13.0,33,0.00,,,0.00,1.000000,,2013-08-30 08:22:00,
2013-08-30 01:32:00,73.0,42.0,-100.00,South,183,11.0,13.0,33,0.00,,,0.00,1.000000,,2013-08-30 08:32:00,
2013-08-30 01:42:00,73.0,42.0,-100.00,South,183,11.0,13.0,33,0.00,,,0.00,1.000000,,2013-08-30 08:42:00,
2013-08-30 01:52:00,73.0,42.0,-100.00,South,183,11.0,13.0,33,0.00,,,0.00,1.000000,,2013-08-30 08:52:00,
2013-08-30 02:22:00,73.0,42.0,-100.00,South,176,12.0,15.0,33,0.00,,,-99.99,1.000000,,2013-08-30 09:22:00,
2013-08-30 02:33:00,73.0,42.0,-100.00,South,176,12.0,15.0,33,0.00,,,-99.99,1.000000,,2013-08-30 09:33:00,
2013-08-30 02:44:00,73.0,42.0,-100.00,South,176,12.0,15.0,33,0.00,,,-99.99,1.000000,,2013-08-30 09:44:00,
2013-08-30 02:53:00,73.0,42.0,-100.00,South,176,12.0,15.0,33,0.00,,,-99.99,1.000000,,2013-08-30 09:53:00,
2013-08-30 03:23:00,72.0,43.0,-100.00,South,190,9.0,14.0,35,0.00,,,-99.99,1.000000,,2013-08-30 10:23:00,
2013-08-30 03:32:00,72.0,43.0,-100.00,South,190,9.0,14.0,35,0.00,,,-99.99,1.000000,,2013-08-30 10:32:00,
2013-08-30 03:43:00,72.0,43.0,-100.00,South,190,9.0,14.0,35,0.00,,,-99.99,1.000000,,2013-08-30 10:43:00,
2013-08-30 03:53:00,72.0,43.0,-100.00,South,190,9.0,14.0,35,0.00,,,-99.99,1.000000,,2013-08-30 10:53:00,
2013-08-30 04:22:00,73.0,47.0,-100.00,SSW,193,8.0,12.0,40,0.00,,,0.00,1.000000,,2013-08-30 11:22:00,
2013-08-30 04:32:00,73.0,47.0,-100.00,SSW,193,8.0,12.0,40,0.00,,,0.00,1.000000,,2013-08-30 11:32:00,
2013-08-30 04:42:00,73.0,47.0,-100.00,SSW,193,8.0,12.0,40,0.00,,,0.00,1.000000,,2013-08-30 11:42:00,
2013-08-30 04:52:00,73.0,47.0,-100.00,SSW,193,8.0,12.0,40,0.00,,,0.00,1.000000,,2013-08-30 11:52:00,
2013-08-30 05:21:00,72.0,47.0,-100.00,SSW,197,10.0,12.0,41,0.00,,,-99.99,1.000000,,2013-08-30 12:21:00,
2013-08-30 05:32:00,72.0,47.0,-100.00,SSW,197,10.0,12.0,41,0.00,,,-99.99,1.000000,,2013-08-30 12:32:00,
2013-08-30 05:42:00,72.0,47.0,-100.00,SSW,197,10.0,12.0,41,0.00,,,-99.99,1.000000,,2013-08-30 12:42:00,
2013-08-30 05:52:00,72.0,47.0,-100.00,SSW,197,10.0,12.0,41,0.00,,,-99.99,1.000000,,2013-08-30 12:52:00,
2013-08-30 06:42:00,71.0,47.0,-100.00,South,183,10.0,12.0,43,0.00,,,0.00,1.000000,,2013-08-30 13:42:00,
2013-08-30 06:52:00,71.0,47.0,-100.00,South,183,10.0,12.0,43,0.00,,,0.00,1.000000,,2013-08-30 13:52:00,
2013-08-30 07:42:00,72.0,49.0,-100.00,South,188,10.0,12.0,44,0.00,,,0.00,16.000000,,2013-08-30 14:42:00,
2013-08-30 07:52:00,72.0,49.0,-100.00,South,188,10.0,12.0,44,0.00,,,0.00,16.000000,,2013-08-30 14:52:00,
2013-08-30 08:43:00,74.0,52.0,-100.00,South,175,10.0,13.0,46,0.00,,,0.00,175.000000,,2013-08-30 15:43:00,
2013-08-30 08:54:00,74.0,52.0,-100.00,South,175,10.0,13.0,46,0.00,,,0.00,175.000000,,2013-08-30 15:54:00,
2013-08-30 09:24:00,78.0,54.0,-100.00,SSE,165,11.0,15.0,43,0.00,,,0.00,427.000000,,2013-08-30 16:24:00,
2013-08-30 09:33:00,78.0,54.0,-100.00,SSE,165,11.0,15.0,43,0.00,,,0.00,427.000000,,2013-08-30 16:33:00,
2013-08-30 09:43:00,78.0,54.0,-100.00,SSE,165,11.0,15.0,43,0.00,,,0.00,427.000000,,2013-08-30 16:43:00,
2013-08-30 09:53:00,78.0,54.0,-100.00,SSE,165,11.0,15.0,43,0.00,,,0.00,427.000000,,2013-08-30 16:53:00,
2013-08-30 10:23:00,79.0,53.0,-100.00,South,179,12.0,19.0,41,0.00,,,0.00,533.000000,,2013-08-30 17:23:00,
2013-08-30 10:34:00,79.0,53.0,-100.00,South,179,12.0,19.0,41,0.00,,,0.00,533.000000,,2013-08-30 17:34:00,
2013-08-30 10:42:00,79.0,53.0,-100.00,South,179,12.0,19.0,41,0.00,,,0.00,533.000000,,2013-08-30 17:42:00,
2013-08-30 10:52:00,79.0,53.0,-100.00,South,179,12.0,19.0,41,0.00,,,0.00,533.000000,,2013-08-30 17:52:00,
2013-08-30 11:42:00,83.0,57.0,-100.00,South,177,11.0,18.0,41,0.00,,,0.00,403.000000,,2013-08-30 18:42:00,
2013-08-30 11:52:00,83.0,57.0,-100.00,South,177,11.0,18.0,41,0.00,,,0.00,403.000000,,2013-08-30 18:52:00,
2013-08-30 12:42:00,86.0,58.0,-100.00,South,170,10.0,19.0,39,0.00,,,0.00,640.000000,,2013-08-30 19:42:00,
2013-08-30 12:53:00,86.0,58.0,-100.00,South,170,10.0,19.0,39,0.00,,,0.00,640.000000,,2013-08-30 19:53:00,
2013-08-30 13:22:00,87.0,58.0,-100.00,South,177,11.0,17.0,37,0.00,,,0.00,831.000000,,2013-08-30 20:22:00,
2013-08-30 13:32:00,87.0,58.0,-100.00,South,177,11.0,17.0,37,0.00,,,0.00,831.000000,,2013-08-30 20:32:00,
2013-08-30 13:43:00,87.0,58.0,-100.00,South,177,11.0,17.0,37,0.00,,,0.00,831.000000,,2013-08-30 20:43:00,
2013-08-30 13:52:00,87.0,58.0,-100.00,South,177,11.0,17.0,37,0.00,,,0.00,831.000000,,2013-08-30 20:52:00,
2013-08-30 14:21:00,90.0,59.0,-100.00,South,178,12.0,20.0,35,0.00,,,0.00,1037.000000,,2013-08-30 21:21:00,
2013-08-30 14:34:00,90.0,59.0,-100.00,South,178,12.0,20.0,35,0.00,,,0.00,1037.000000,,2013-08-30 21:34:00,
2013-08-30 14:44:00,90.0,59.0,-100.00,South,178,12.0,20.0,35,0.00,,,0.00,1037.000000,,2013-08-30 21:44:00,
2013-08-30 14:54:00,90.0,59.0,-100.00,South,178,12.0,20.0,35,0.00,,,0.00,1037.000000,,2013-08-30 21:54:00,
2013-08-30 15:43:00,88.0,59.0,-100.00,South,180,15.0,24.0,38,0.00,,,0.00,961.000000,,2013-08-30 22:43:00,
2013-08-30 15:54:00,88.0,59.0,-100.00,South,180,15.0,24.0,38,0.00,,,0.00,961.000000,,2013-08-30 22:54:00,
2013-08-30 16:22:00,83.0,61.0,-100.00,South,183,18.0,27.0,47,0.00,,,0.00,813.000000,,2013-08-30 23:22:00,
2013-08-30 16:33:00,83.0,61.0,-100.00,South,183,18.0,27.0,47,0.00,,,0.00,813.000000,,2013-08-30 23:33:00,
2013-08-30 16:42:00,83.0,61.0,-100.00,South,183,18.0,27.0,47,0.00,,,0.00,813.000000,,2013-08-30 23:42:00,
2013-08-30 16:53:00,83.0,61.0,-100.00,South,183,18.0,27.0,47,0.00,,,0.00,813.000000,,2013-08-30 23:53:00,
2013-08-30 17:21:00,81.0,61.0,-100.00,South,183,17.0,30.0,51,0.00,,,0.00,675.000000,,2013-08-31 00:21:00,
2013-08-30 17:32:00,81.0,61.0,-100.00,South,183,17.0,30.0,51,0.00,,,0.00,675.000000,,2013-08-31 00:32:00,
2013-08-30 17:42:00,81.0,61.0,-100.00,South,183,17.0,30.0,51,0.00,,,0.00,675.000000,,2013-08-31 00:42:00,
2013-08-30 17:52:00,81.0,61.0,-100.00,South,183,17.0,30.0,51,0.00,,,0.00,675.000000,,2013-08-31 00:52:00,
2013-08-30 18:42:00,77.0,61.0,-100.00,South,179,18.0,31.0,57,0.00,,,0.00,400.000000,,2013-08-31 01:42:00,
2013-08-30 18:52:00,77.0,61.0,-100.00,South,179,18.0,31.0,57,0.00,,,0.00,400.000000,,2013-08-31 01:52:00,
2013-08-30 19:42:00,72.0,61.0,-100.00,South,181,19.0,29.0,69,0.00,,,0.00,111.000000,,2013-08-31 02:42:00,
2013-08-30 19:52:00,72.0,61.0,-100.00,South,181,19.0,29.0,69,0.00,,,0.00,111.000000,,2013-08-31 02:52:00,
2013-08-30 20:44:00,69.0,61.0,-100.00,South,183,19.0,29.0,77,0.00,,,0.00,8.000000,,2013-08-31 03:44:00,
2013-08-30 20:54:00,69.0,61.0,-100.00,South,183,19.0,29.0,77,0.00,,,0.00,8.000000,,2013-08-31 03:54:00,
2013-08-30 21:24:00,69.0,63.0,-100.00,South,184,17.0,25.0,80,0.00,,,0.00,1.000000,,2013-08-31 04:24:00,
2013-08-30 21:34:00,69.0,63.0,-100.00,South,184,17.0,25.0,80,0.00,,,0.00,1.000000,,2013-08-31 04:34:00,
2013-08-30 21:44:00,69.0,63.0,-100.00,South,184,17.0,25.0,80,0.00,,,0.00,1.000000,,2013-08-31 04:44:00,
2013-08-30 21:54:00,69.0,63.0,-100.00,South,184,17.0,25.0,80,0.00,,,0.00,1.000000,,2013-08-31 04:54:00,
2013-08-30 22:42:00,68.0,61.0,-100.00,South,183,16.0,26.0,79,0.00,,,0.00,1.000000,,2013-08-31 05:42:00,
2013-08-30 22:52:00,68.0,61.0,-100.00,South,183,16.0,26.0,79,0.00,,,0.00,1.000000,,2013-08-31 05:52:00,
2013-08-30 23:42:00,68.0,62.0,-100.00,South,186,18.0,21.0,80,0.00,,,0.00,1.000000,,2013-08-31 06:42:00,
2013-08-30 23:52:00,68.0,62.0,-100.00,South,186,18.0,21.0,80,0.00,,,0.00,1.000000,,2013-08-31 06:52:00,